Terminal Aerodrome Forecast
Issued by NWS

Home | Current Version | Previous Version | Graphics & Text | Print | Product List | Glossary On
Versions: 1 2 3 4 5 6 7 8 9 10 11 12 13 14 15 16 17 18 19 20 21 22 23 24 25 26 27 28 29 30 31 32 33 34
000
FTUS43 KLOT 040230 AAA
TAFMDW
TAF AMD
KMDW 040230Z 0403/0424 03005KT 6SM BR SCT040
     FM040700 VRB03KT 5SM BR BKN020
     FM041400 VRB03KT P6SM SCT040
     FM042200 09004KT P6SM SCT050 PROB30 0422/0424 -TSRA SCT040CB=

USA.gov is the U.S. government's official web portal to all federal, state and local government web resources and services.